ボストン の空港の天気 - METARとTAF

ジェネラル・エドワード・ローレンス・ローガン国際空港 ( KBOS / BOS ) - アメリカ マサチューセッツ州ボストン
飛行場実況気象(Metar)
観測時間04/21 22:54 EDT (04/22 02:54 UTC)
風向・風速南 3m/s
視程10km以上
天気現象
全天の4割程度の雲 雲底高度 3960m
全天を覆う雲 雲底高度 7620m
気温13.9℃
湿度83%
気圧1019.8hPa
METARKBOS 220254Z 19005KT 10SM SCT130 OVC250 14/11 A3012 RMK AO2 SLP198 T01390111 51012
過去の天気等 Google飛行場航空写真 Wunderground天気予報

過去48時間のMETAR

飛行場予報(TAF)
発表時間: 4/21 19:20 EDT (4/21 23:20 UTC)
予報対象時間: 21日20時 EDT ~ 23日2時 EDT
風向・風速南 4m/s
視程10km以上
全天の4割程度の雲 雲底高度 2130m
22日0時 EDT から
風向・風速南西 2m/s
視程10km以上
全天の8割程度の雲 雲底高度 2440m
22日5時 EDT から
風向・風速北 3m/s
視程4830m
天気現象もや
全天を覆う雲 雲底高度 460m
22日9時 EDT から
風向・風速北北東 4m/s
視程4830m
天気現象もや
全天を覆う雲 雲底高度 240m
22日11時 EDT から
風向・風速北東 4m/s
視程8050m
天気現象もや 周辺でしゅう雨
全天を覆う雲 雲底高度 240m
22日14時 EDT から
風向・風速北東 5m/s 瞬間風速 10m/s
視程6440m
天気現象しゅう雨
全天を覆う雲 雲底高度 300m
KBOS 212320Z 2200/2306 19007KT P6SM SCT070
FM220400 22003KT P6SM BKN080
FM220900 36005KT 3SM BR OVC015
FM221300 03007KT 3SM BR OVC008
FM221500 04008KT 5SM BR VCSH OVC008
FM221800 04010G19KT 4SM SHRA OVC010